Aviation Digital Data Service (ADDS)

Output produced by METARs form (2159 UTC 22 December 2014)
found at http://aviationweather.gov/adds/metars/
 
KAEX 221909Z 2219/2318 19011G15KT P6SM SCT010 OVC021 
     TEMPO 2219/2221 BKN010 
     FM230000 25007KT P6SM SCT014 OVC040 
     FM230700 01004KT 2SM BR BKN004 OVC008 
     TEMPO 2307/2311 1/2SM FG VV002 
     FM231500 15006KT 2SM BR OVC008